Sikinos — 9HA2865 — position and weather

sailwx.info

Track history (hours):
 
Tides and Currents Weather Stations Pressure Air Temp Water Temp Dewpoint Dewpoint Depression Visibility Wind Speed Wind Dir Waves Ship Positions

Sikinos

Last reported at 2016-Jun-26 21:34 UTC. Time now 2016-Jun-27 02:28 UTC.
Position N 50°53' W 001°23'.

Length 90 m; draft 5.9 m.

Type: Ship (hazmat cat A). MMSI: 256462000.

Date/timePositionNaut miles runAvg speedWind from/ knotsBaromVisibWave heightAir tempDewpointWater temp
2016-Jun-26 21:34N 50°53' W 001°23'9 9.4
2016-Jun-26 20:33N 50°46' W 001°13'1010.1
2016-Jun-26 19:34N 50°42' W 000°58'9 8.7
2016-Jun-26 18:32N 50°38' W 000°46'1110.8
2016-Jun-26 17:33N 50°34' W 000°31'1212.2
2016-Jun-26 16:33N 50°30' W 000°12'1212.1
2016-Jun-26 15:33N 50°34' E 000°06'1111.2
2016-Jun-26 14:33N 50°37' E 000°23'3611.2
2016-Jun-26 11:18N 50°56' E 001°11'1114.3
2016-Jun-26 10:33N 51°03' E 001°25'1514.5
2016-Jun-26 09:33N 51°12' E 001°43'1312.6
2016-Jun-26 08:33N 51°22' E 001°56'1010.0
2016-Jun-26 07:33N 51°22' E 002°12'1110.7
2016-Jun-26 06:32N 51°23' E 002°29'10 9.9
2016-Jun-26 05:33N 51°22' E 002°45'1010.3
2016-Jun-26 04:33N 51°22' E 003°01'7 6.4
2016-Jun-26 03:32N 51°21' E 003°12'0 0.0
2016-Jun-26 02:32N 51°21' E 003°12'0 0.0
2016-Jun-25 18:32N 51°21' E 003°12'0 0.0
2016-Jun-25 17:32N 51°21' E 003°12'0 0.0
2016-Jun-25 15:29N 51°21' E 003°12'0 0.0
2016-Jun-25 11:26N 51°21' E 003°12'0 0.0
2016-Jun-25 06:20N 51°21' E 003°12'3 3.3
2016-Jun-25 05:33N 51°22' E 003°08'1313.5
2016-Jun-25 04:34N 51°22' E 002°47'1312.0
2016-Jun-25 03:27N 51°21' E 002°25'1212.7
2016-Jun-25 02:33N 51°15' E 002°09'1312.8
2016-Jun-25 01:34N 51°09' E 001°52'1312.5
2016-Jun-25 00:34N 51°00' E 001°37'1111.2
2016-Jun-24 23:33N 50°52' E 001°26'6310.3
2016-Jun-24 17:24N 50°19' E 000°01'1011.3
2016-Jun-24 16:33N 50°17' W 000°14'1411.1
2016-Jun-24 15:18N 50°13' W 000°35'11214.4
2016-Jun-24 07:30N 49°37' W 003°20'9213.1
2016-Jun-24 00:26N 48°52' W 005°24'60111.8
2016-Jun-21 21:33N 39°23' W 009°50'1711.8
2016-Jun-21 20:06N 39°06' W 009°51'611.8
2016-Jun-21 19:34N 38°59' W 009°51'1211.4
2016-Jun-21 18:33N 38°48' W 009°50'1111.5
2016-Jun-21 17:34N 38°37' W 009°49'1212.2
2016-Jun-21 16:34N 38°36' W 009°33'1110.9
2016-Jun-21 15:34N 38°39' W 009°20'9 8.5
2016-Jun-21 14:33N 38°42' W 009°09'0 0.1
2016-Jun-21 12:30N 38°42' W 009°10'0 0.0
2016-Jun-21 11:18N 38°42' W 009°10'0 0.0
2016-Jun-21 09:21N 38°42' W 009°10'0 0.0
2016-Jun-21 08:15N 38°42' W 009°10'0 0.0
2016-Jun-21 07:33N 38°42' W 009°10'0 0.0
2016-Jun-21 03:21N 38°42' W 009°10'0 0.0
2016-Jun-21 00:24N 38°42' W 009°10'0 0.0
2016-Jun-20 23:21N 38°42' W 009°10'0 0.0
2016-Jun-20 22:27N 38°42' W 009°10'0 0.0
2016-Jun-20 21:21N 38°42' W 009°10'0 0.0
2016-Jun-20 20:30N 38°42' W 009°10'0 0.0
2016-Jun-20 19:30N 38°42' W 009°10'0 0.0
2016-Jun-20 15:33N 38°42' W 009°10'0 0.0
2016-Jun-20 13:30N 38°42' W 009°10'0 0.0
2016-Jun-20 12:15N 38°42' W 009°10'0 0.0
2016-Jun-20 11:30N 38°42' W 009°10'0 0.0
2016-Jun-20 09:24N 38°42' W 009°10'0 0.0
2016-Jun-20 08:24N 38°42' W 009°10'0 0.0
2016-Jun-20 05:30N 38°42' W 009°10'0 0.0
2016-Jun-20 03:27N 38°42' W 009°10'0 0.0
2016-Jun-20 02:27N 38°42' W 009°10'0 0.0
2016-Jun-20 01:18N 38°42' W 009°10'0 0.0
2016-Jun-20 00:06N 38°42' W 009°10'0 0.0
2016-Jun-19 23:30N 38°42' W 009°10'0 0.0
2016-Jun-19 21:30N 38°42' W 009°10'0 0.0
2016-Jun-19 20:18N 38°42' W 009°10'0 0.0
2016-Jun-19 17:12N 38°42' W 009°10'0 0.0
2016-Jun-19 15:18N 38°42' W 009°10'0 0.0
2016-Jun-19 14:27N 38°42' W 009°10'0 0.0
2016-Jun-19 13:24N 38°42' W 009°10'0 0.0
2016-Jun-19 11:24N 38°42' W 009°10'0 0.0
2016-Jun-19 09:15N 38°42' W 009°10'0 0.0
2016-Jun-19 07:24N 38°42' W 009°10'0 0.0
2016-Jun-19 02:09N 38°42' W 009°10'0 0.0
2016-Jun-19 01:27N 38°42' W 009°10'0 0.0
2016-Jun-18 23:33N 38°42' W 009°10'0 0.0
2016-Jun-18 17:24N 38°42' W 009°10'0 0.0
2016-Jun-18 16:29N 38°42' W 009°10'0 0.0
2016-Jun-18 12:12N 38°42' W 009°10'0 0.0
2016-Jun-17 15:32N 38°42' W 009°10'0 0.0
2016-Jun-17 11:23N 38°42' W 009°10'0 0.0
2016-Jun-17 08:29N 38°42' W 009°10'0 0.0
2016-Jun-17 06:05N 38°42' W 009°10'0 0.0
2016-Jun-17 02:26N 38°42' W 009°10'0 0.0
2016-Jun-17 01:14N 38°42' W 009°10'  
Track history (hours):
 
Tides and Currents Weather Stations Pressure Air Temp Water Temp Dewpoint Dewpoint Depression Visibility Wind Speed Wind Dir Waves Ship Positions

Sikinos

Last reported at 2016-Jun-26 21:34 UTC. Time now 2016-Jun-27 02:28 UTC.
Position N 50°53' W 001°23'.

Length 90 m; draft 5.9 m.

Type: Ship (hazmat cat A). MMSI: 256462000.

Date/timePositionNaut miles runAvg speedWind from/ knotsBaromVisibWave heightAir tempDewpointWater temp
2016-Jun-26 21:34N 50°53' W 001°23'9 9.4
2016-Jun-26 20:33N 50°46' W 001°13'1010.1
2016-Jun-26 19:34N 50°42' W 000°58'9 8.7
2016-Jun-26 18:32N 50°38' W 000°46'1110.8
2016-Jun-26 17:33N 50°34' W 000°31'1212.2
2016-Jun-26 16:33N 50°30' W 000°12'1212.1
2016-Jun-26 15:33N 50°34' E 000°06'1111.2
2016-Jun-26 14:33N 50°37' E 000°23'3611.2
2016-Jun-26 11:18N 50°56' E 001°11'1114.3
2016-Jun-26 10:33N 51°03' E 001°25'1514.5
2016-Jun-26 09:33N 51°12' E 001°43'1312.6
2016-Jun-26 08:33N 51°22' E 001°56'1010.0
2016-Jun-26 07:33N 51°22' E 002°12'1110.7
2016-Jun-26 06:32N 51°23' E 002°29'10 9.9
2016-Jun-26 05:33N 51°22' E 002°45'1010.3
2016-Jun-26 04:33N 51°22' E 003°01'7 6.4
2016-Jun-26 03:32N 51°21' E 003°12'0 0.0
2016-Jun-26 02:32N 51°21' E 003°12'0 0.0
2016-Jun-25 18:32N 51°21' E 003°12'0 0.0
2016-Jun-25 17:32N 51°21' E 003°12'0 0.0
2016-Jun-25 15:29N 51°21' E 003°12'0 0.0
2016-Jun-25 11:26N 51°21' E 003°12'0 0.0
2016-Jun-25 06:20N 51°21' E 003°12'3 3.3
2016-Jun-25 05:33N 51°22' E 003°08'1313.5
2016-Jun-25 04:34N 51°22' E 002°47'1312.0
2016-Jun-25 03:27N 51°21' E 002°25'1212.7
2016-Jun-25 02:33N 51°15' E 002°09'1312.8
2016-Jun-25 01:34N 51°09' E 001°52'1312.5
2016-Jun-25 00:34N 51°00' E 001°37'1111.2
2016-Jun-24 23:33N 50°52' E 001°26'6310.3
2016-Jun-24 17:24N 50°19' E 000°01'1011.3
2016-Jun-24 16:33N 50°17' W 000°14'1411.1
2016-Jun-24 15:18N 50°13' W 000°35'11214.4
2016-Jun-24 07:30N 49°37' W 003°20'9213.1
2016-Jun-24 00:26N 48°52' W 005°24'60111.8
2016-Jun-21 21:33N 39°23' W 009°50'1711.8
2016-Jun-21 20:06N 39°06' W 009°51'611.8
2016-Jun-21 19:34N 38°59' W 009°51'1211.4
2016-Jun-21 18:33N 38°48' W 009°50'1111.5
2016-Jun-21 17:34N 38°37' W 009°49'1212.2
2016-Jun-21 16:34N 38°36' W 009°33'1110.9
2016-Jun-21 15:34N 38°39' W 009°20'9 8.5
2016-Jun-21 14:33N 38°42' W 009°09'0 0.1
2016-Jun-21 12:30N 38°42' W 009°10'0 0.0
2016-Jun-21 11:18N 38°42' W 009°10'0 0.0
2016-Jun-21 09:21N 38°42' W 009°10'0 0.0
2016-Jun-21 08:15N 38°42' W 009°10'0 0.0
2016-Jun-21 07:33N 38°42' W 009°10'0 0.0
2016-Jun-21 03:21N 38°42' W 009°10'0 0.0
2016-Jun-21 00:24N 38°42' W 009°10'0 0.0
2016-Jun-20 23:21N 38°42' W 009°10'0 0.0
2016-Jun-20 22:27N 38°42' W 009°10'0 0.0
2016-Jun-20 21:21N 38°42' W 009°10'0 0.0
2016-Jun-20 20:30N 38°42' W 009°10'0 0.0
2016-Jun-20 19:30N 38°42' W 009°10'0 0.0
2016-Jun-20 15:33N 38°42' W 009°10'0 0.0
2016-Jun-20 13:30N 38°42' W 009°10'0 0.0
2016-Jun-20 12:15N 38°42' W 009°10'0 0.0
2016-Jun-20 11:30N 38°42' W 009°10'0 0.0
2016-Jun-20 09:24N 38°42' W 009°10'0 0.0
2016-Jun-20 08:24N 38°42' W 009°10'0 0.0
2016-Jun-20 05:30N 38°42' W 009°10'0 0.0
2016-Jun-20 03:27N 38°42' W 009°10'0 0.0
2016-Jun-20 02:27N 38°42' W 009°10'0 0.0
2016-Jun-20 01:18N 38°42' W 009°10'0 0.0
2016-Jun-20 00:06N 38°42' W 009°10'0 0.0
2016-Jun-19 23:30N 38°42' W 009°10'0 0.0
2016-Jun-19 21:30N 38°42' W 009°10'0 0.0
2016-Jun-19 20:18N 38°42' W 009°10'0 0.0
2016-Jun-19 17:12N 38°42' W 009°10'0 0.0
2016-Jun-19 15:18N 38°42' W 009°10'0 0.0
2016-Jun-19 14:27N 38°42' W 009°10'0 0.0
2016-Jun-19 13:24N 38°42' W 009°10'0 0.0
2016-Jun-19 11:24N 38°42' W 009°10'0 0.0
2016-Jun-19 09:15N 38°42' W 009°10'0 0.0
2016-Jun-19 07:24N 38°42' W 009°10'0 0.0
2016-Jun-19 02:09N 38°42' W 009°10'0 0.0
2016-Jun-19 01:27N 38°42' W 009°10'0 0.0
2016-Jun-18 23:33N 38°42' W 009°10'0 0.0
2016-Jun-18 17:24N 38°42' W 009°10'0 0.0
2016-Jun-18 16:29N 38°42' W 009°10'0 0.0
2016-Jun-18 12:12N 38°42' W 009°10'0 0.0
2016-Jun-17 15:32N 38°42' W 009°10'0 0.0
2016-Jun-17 11:23N 38°42' W 009°10'0 0.0
2016-Jun-17 08:29N 38°42' W 009°10'0 0.0
2016-Jun-17 06:05N 38°42' W 009°10'0 0.0
2016-Jun-17 02:26N 38°42' W 009°10'0 0.0
2016-Jun-17 01:14N 38°42' W 009°10'  

Dump ship's entire track history